Time;durP1;ratioP1;P1;durP2;ratioP2;P2;SDS_P1;SDS_P2;PMS_P1;PMS_P2;Temp;Humidity;BMP_temperature;BMP_pressure;BME280_temperature;BME280_humidity;BME280_pressure;Samples;Min_cycle;Max_cycle;Signal;HPM_P1;HPM_P2
2023/12/25 00:00:01;;;;;;;;;;;;;;;7.80;78.00;101442.09;10375905;28;96889;-85
2023/12/25 00:05:11;;;;;;;;;;;;;;;7.82;78.19;101435.09;10376974;28;96677;-85
2023/12/25 00:10:18;;;;;;;;;;;;;;;7.84;78.16;101442.03;10376687;28;96680;-84
2023/12/25 00:15:22;;;;;;;;;;;;;;;7.83;78.16;101431.56;10376989;28;97270;-83
2023/12/25 00:20:30;;;;;;;;;;;;;;;7.85;78.02;101419.31;10367408;28;96704;-84
2023/12/25 00:25:34;;;;;;;;;;;;;;;7.81;78.35;101422.84;10334815;28;96769;-85
2023/12/25 00:30:39;;;;;;;;;;;;;;;7.80;78.68;101427.22;10335049;28;96706;-84
2023/12/25 00:35:45;;;;;;;;;;;;;;;7.76;78.41;101417.66;10376136;28;97541;-84
2023/12/25 00:40:49;;;;;;;;;;;;;;;7.75;78.47;101402.81;10375899;28;96770;-84
2023/12/25 00:45:54;;;;;;;;;;;;;;;7.73;78.63;101415.09;10375839;28;97375;-84
2023/12/25 00:51:00;;;;;;;;;;;;;;;7.73;78.08;101408.97;10374402;28;96777;-85
2023/12/25 00:56:05;;;;;;;;;;;;;;;7.69;78.58;101423.84;10375609;28;96620;-85
2023/12/25 01:01:09;;;;;;;;;;;;;;;7.69;78.68;101421.22;10375267;28;97460;-83
2023/12/25 01:06:19;;;;;;;;;;;;;;;7.74;78.32;101416.81;10374810;28;97205;-84
2023/12/25 01:11:23;;;;;;;;;;;;;;;7.66;78.47;101405.53;10375007;28;97334;-84
2023/12/25 01:16:27;;;;;;;;;;;;;;;7.64;78.78;101403.81;10374233;28;97226;-84
2023/12/25 01:21:34;;;;;;;;;;;;;;;7.67;78.70;101399.41;10357120;28;96849;-84
2023/12/25 01:26:39;;;;;;;;;;;;;;;7.67;78.86;101393.28;10373750;28;97078;-83
2023/12/25 01:31:45;;;;;;;;;;;;;;;7.63;78.91;101381.97;10373425;28;96599;-86
2023/12/25 01:36:51;;;;;;;;;;;;;;;7.63;79.01;101381.13;10373923;28;96709;-84
2023/12/25 01:41:55;;;;;;;;;;;;;;;7.59;79.06;101385.53;10372899;28;96655;-84
2023/12/25 01:46:59;;;;;;;;;;;;;;;7.65;78.86;101382.84;10373574;28;96942;-84
2023/12/25 01:52:09;;;;;;;;;;;;;;;7.66;78.78;101387.22;10373281;28;97682;-84
2023/12/25 01:57:17;;;;;;;;;;;;;;;7.61;79.03;101382.88;10326189;22;97054;-84
2023/12/25 02:02:21;;;;;;;;;;;;;;;7.58;78.87;101388.16;10278118;28;96956;-84
2023/12/25 02:07:28;;;;;;;;;;;;;;;7.61;79.02;101390.75;10249768;28;96687;-84
2023/12/25 02:12:34;;;;;;;;;;;;;;;7.53;79.38;101382.94;10250306;28;97369;-83
2023/12/25 02:17:41;;;;;;;;;;;;;;;7.53;79.24;101371.59;10251184;28;96697;-84
2023/12/25 02:22:54;;;;;;;;;;;;;;;7.52;79.36;101378.59;10249870;28;96698;-84
2023/12/25 02:27:59;;;;;;;;;;;;;;;7.51;79.16;101365.53;10249103;28;96742;-85
2023/12/25 02:33:07;;;;;;;;;;;;;;;7.51;79.32;101355.91;10248944;28;97328;-84
2023/12/25 02:38:13;;;;;;;;;;;;;;;7.51;79.52;101357.69;10248961;28;96731;-84
2023/12/25 02:43:20;;;;;;;;;;;;;;;7.45;79.45;101363.84;10248063;28;96764;-85
2023/12/25 02:48:26;;;;;;;;;;;;;;;7.47;79.40;101363.81;10248722;28;96920;-84
2023/12/25 02:53:34;;;;;;;;;;;;;;;7.49;79.59;101364.69;10248917;28;97534;-85
2023/12/25 02:58:44;;;;;;;;;;;;;;;7.48;79.16;101365.53;10277136;28;96704;-85
2023/12/25 03:03:48;;;;;;;;;;;;;;;7.48;79.09;101365.53;10289078;28;97218;-84
2023/12/25 03:09:03;;;;;;;;;;;;;;;7.49;79.28;101354.19;10289457;28;97053;-84
2023/12/25 03:14:29;;;;;;;;;;;;;;;7.48;78.94;101335.00;10289289;28;96653;-84
2023/12/25 03:19:45;;;;;;;;;;;;;;;7.50;78.88;101342.81;10289090;28;96741;-85
2023/12/25 03:24:49;;;;;;;;;;;;;;;7.55;79.14;101347.16;10287766;28;97358;-84
2023/12/25 03:30:00;;;;;;;;;;;;;;;7.54;78.86;101334.06;10287890;28;96792;-83
2023/12/25 03:35:04;;;;;;;;;;;;;;;7.49;79.11;101334.09;10288580;28;96741;-83
2023/12/25 03:40:22;;;;;;;;;;;;;;;7.49;79.01;101339.34;10287870;28;97263;-83
2023/12/25 03:45:41;;;;;;;;;;;;;;;7.49;79.04;101341.94;10288085;28;96572;-82
2023/12/25 03:50:48;;;;;;;;;;;;;;;7.47;78.80;101343.75;10277075;28;96711;-84
2023/12/25 03:56:01;;;;;;;;;;;;;;;7.52;78.66;101356.78;10256253;28;97064;-83
2023/12/25 04:01:07;;;;;;;;;;;;;;;7.56;78.93;101366.34;10255358;28;97190;-85
2023/12/25 04:06:27;;;;;;;;;;;;;;;7.59;78.67;101359.34;10254199;28;96710;-84
2023/12/25 04:11:37;;;;;;;;;;;;;;;7.53;78.86;101353.25;10254141;28;96656;-84
2023/12/25 04:16:51;;;;;;;;;;;;;;;7.52;78.54;101349.81;10252790;28;96657;-83
2023/12/25 04:21:59;;;;;;;;;;;;;;;7.50;78.61;101340.22;10254280;28;97518;-84
2023/12/25 04:27:18;;;;;;;;;;;;;;;7.53;78.43;101335.81;10253403;28;97569;-84
2023/12/25 04:32:34;;;;;;;;;;;;;;;7.50;78.86;101330.59;10253218;28;96766;-83
2023/12/25 04:37:41;;;;;;;;;;;;;;;7.48;78.90;101319.28;10253004;28;96625;-84
2023/12/25 04:42:49;;;;;;;;;;;;;;;7.47;78.91;101319.28;10253418;28;97443;-85
2023/12/25 04:48:06;;;;;;;;;;;;;;;7.46;78.79;101309.72;10252590;28;97113;-84
2023/12/25 04:53:31;;;;;;;;;;;;;;;7.50;78.52;101317.53;10253227;28;97447;-84
2023/12/25 04:58:35;;;;;;;;;;;;;;;7.48;78.92;101310.53;10252007;28;96894;-84
2023/12/25 05:03:44;;;;;;;;;;;;;;;7.42;78.85;101301.03;10251159;28;96802;-84
2023/12/25 05:08:53;;;;;;;;;;;;;;;7.43;78.80;101302.75;10250611;28;97578;-84
2023/12/25 05:14:03;;;;;;;;;;;;;;;7.42;78.47;101297.53;10252190;28;96800;-84
2023/12/25 05:19:14;;;;;;;;;;;;;;;7.48;78.43;101300.06;10252149;28;97567;-83
2023/12/25 05:24:18;;;;;;;;;;;;;;;7.45;78.43;101305.34;10251500;28;96857;-85
2023/12/25 05:29:28;;;;;;;;;;;;;;;7.46;78.53;101310.56;10251175;28;96684;-84
2023/12/25 05:34:36;;;;;;;;;;;;;;;7.42;78.37;101313.25;10251602;28;96808;-84
2023/12/25 05:39:47;;;;;;;;;;;;;;;7.43;78.28;101315.84;10251536;28;96652;-84
2023/12/25 05:44:51;;;;;;;;;;;;;;;7.43;78.43;101312.34;10251782;28;96873;-85
2023/12/25 05:55:28;;;;;;;;;;;;;;;7.40;78.24;101325.47;10253209;28;97404;-85
2023/12/25 06:00:37;;;;;;;;;;;;;;;7.36;77.99;101326.38;10289570;28;96645;-85
2023/12/25 06:05:48;;;;;;;;;;;;;;;7.36;77.87;101332.50;10290853;28;96766;-84
2023/12/25 06:10:56;;;;;;;;;;;;;;;7.35;78.31;101337.75;10290178;28;96951;-83
2023/12/25 06:16:03;;;;;;;;;;;;;;;7.32;78.13;101327.31;10290513;28;97038;-84
2023/12/25 06:21:21;;;;;;;;;;;;;;;7.31;78.35;101330.78;10290566;28;97214;-84
2023/12/25 06:26:32;;;;;;;;;;;;;;;7.25;78.14;101341.34;10289990;28;96636;-84
2023/12/25 06:31:58;;;;;;;;;;;;;;;7.29;78.31;101351.75;10289044;28;96774;-83
2023/12/25 06:37:07;;;;;;;;;;;;;;;7.23;78.11;101354.44;10290652;28;96629;-83
2023/12/25 06:42:18;;;;;;;;;;;;;;;7.16;78.19;101358.00;10279471;28;96677;-84
2023/12/25 06:47:30;;;;;;;;;;;;;;;7.12;78.44;101361.50;10249186;28;96769;-83
2023/12/25 06:52:48;;;;;;;;;;;;;;;;;;;;;
2023/12/25 06:58:01;;;;;;;;;;;;;;;7.06;78.59;101360.69;10248147;28;96836;-85
2023/12/25 07:03:15;;;;;;;;;;;;;;;7.07;78.71;101365.03;10248875;28;96621;-84
2023/12/25 07:08:32;;;;;;;;;;;;;;;7.03;78.80;101373.78;10248386;28;96656;-85
2023/12/25 07:13:40;;;;;;;;;;;;;;;7.06;78.73;101377.25;10249066;28;96801;-84
2023/12/25 07:18:50;;;;;;;;;;;;;;;7.03;78.37;101382.50;10248231;28;96669;-84
2023/12/25 07:24:08;;;;;;;;;;;;;;;6.99;78.72;101387.78;10207763;28;96802;-84
2023/12/25 07:29:12;;;;;;;;;;;;;;;6.94;78.61;101373.88;10212144;28;96820;-85
2023/12/25 07:34:20;;;;;;;;;;;;;;;6.96;78.69;101383.41;10215212;28;96636;-85
2023/12/25 07:39:30;;;;;;;;;;;;;;;6.94;79.02;101392.19;10243926;28;97194;-83
2023/12/25 07:44:42;;;;;;;;;;;;;;;6.91;78.68;101394.78;10254435;28;97241;-84
2023/12/25 07:49:50;;;;;;;;;;;;;;;6.88;78.57;101403.56;10254341;28;96741;-83
2023/12/25 07:54:58;;;;;;;;;;;;;;;6.89;78.72;101400.03;10254173;28;96740;-85
2023/12/25 08:00:02;;;;;;;;;;;;;;;6.89;78.70;101392.19;10254037;28;96692;-83
2023/12/25 08:05:08;;;;;;;;;;;;;;;6.90;78.66;101400.91;10254045;28;96705;-84
2023/12/25 08:10:14;;;;;;;;;;;;;;;6.90;78.30;101391.34;10253463;28;96726;-85
2023/12/25 08:15:19;;;;;;;;;;;;;;;6.85;78.26;101394.84;10254058;28;96926;-84
2023/12/25 08:20:25;;;;;;;;;;;;;;;6.87;78.44;101404.41;10254517;28;96973;-84
2023/12/25 08:25:32;;;;;;;;;;;;;;;6.85;78.42;101397.47;10253256;28;97137;-85
2023/12/25 08:30:38;;;;;;;;;;;;;;;6.81;78.60;101394.84;10253088;28;96623;-84
2023/12/25 08:35:43;;;;;;;;;;;;;;;6.92;77.96;101407.00;10252205;28;96723;-84
2023/12/25 08:40:51;;;;;;;;;;;;;;;6.90;77.90;101403.53;10251742;28;96789;-84
2023/12/25 08:45:55;;;;;;;;;;;;;;;6.94;77.68;101418.34;10253177;28;96622;-85
2023/12/25 08:50:59;;;;;;;;;;;;;;;6.96;77.71;101420.06;10252246;28;96841;-84
2023/12/25 08:56:08;;;;;;;;;;;;;;;6.96;77.33;101427.91;10252316;28;97187;-85
2023/12/25 09:01:12;;;;;;;;;;;;;;;7.02;77.35;101422.66;10251768;28;96863;-84
2023/12/25 09:06:16;;;;;;;;;;;;;;;7.00;77.00;101440.09;10252133;28;96867;-85
2023/12/25 09:11:23;;;;;;;;;;;;;;;6.99;76.84;101430.50;10252702;28;96617;-83
2023/12/25 09:16:28;;;;;;;;;;;;;;;7.00;76.85;101436.59;10252113;28;96588;-83
2023/12/25 09:21:37;;;;;;;;;;;;;;;7.00;76.69;101449.69;10251612;28;96806;-85
2023/12/25 09:26:44;;;;;;;;;;;;;;;7.08;75.90;101463.63;10250138;28;96660;-84
2023/12/25 09:31:51;;;;;;;;;;;;;;;7.05;76.12;101469.72;10251603;28;98882;-84
2023/12/25 09:36:58;;;;;;;;;;;;;;;7.17;76.15;101459.19;10251544;28;97294;-84
2023/12/25 09:42:09;;;;;;;;;;;;;;;7.21;75.56;101460.91;10251213;28;97178;-84
2023/12/25 09:47:13;;;;;;;;;;;;;;;7.36;74.56;101478.25;10250461;28;97273;-85
2023/12/25 09:52:17;;;;;;;;;;;;;;;7.50;74.67;101472.03;10231184;28;96815;-84
2023/12/25 09:57:28;;;;;;;;;;;;;;;7.55;74.06;101458.88;10250300;28;97252;-84
2023/12/25 10:02:36;;;;;;;;;;;;;;;7.64;74.01;101490.25;10251286;28;97521;-85
2023/12/25 10:07:40;;;;;;;;;;;;;;;7.75;73.68;101464.84;10250476;28;97240;-84
2023/12/25 10:12:46;;;;;;;;;;;;;;;7.76;73.39;101477.94;10249867;28;97053;-83
2023/12/25 10:18:01;;;;;;;;;;;;;;;7.93;72.99;101472.50;10249114;28;97132;-85
2023/12/25 10:23:12;;;;;;;;;;;;;;;7.82;73.20;101472.63;10250089;28;96993;-84
2023/12/25 10:28:29;;;;;;;;;;;;;;;7.75;72.80;101475.31;10249432;28;97309;-84
2023/12/25 10:33:35;;;;;;;;;;;;;;;7.87;72.94;101469.97;10249258;28;96730;-85
2023/12/25 10:38:42;;;;;;;;;;;;;;;7.84;72.30;101469.97;10249350;28;96982;-84
2023/12/25 10:43:55;;;;;;;;;;;;;;;7.80;72.79;101470.91;10248893;28;97252;-84
2023/12/25 10:49:00;;;;;;;;;;;;;;;7.87;72.44;101470.81;10248844;28;96637;-85
2023/12/25 10:54:06;;;;;;;;;;;;;;;7.82;72.23;101463.91;10249909;28;97010;-84
2023/12/25 10:59:16;;;;;;;;;;;;;;;7.88;72.10;101467.34;10281625;28;96802;-83
2023/12/25 11:04:21;;;;;;;;;;;;;;;7.92;72.33;101453.31;10287996;28;96871;-84
2023/12/25 11:09:25;;;;;;;;;;;;;;;7.93;71.84;101465.53;10287713;28;98800;-85
2023/12/25 11:14:38;;;;;;;;;;;;;;;7.83;71.75;101447.28;10288919;28;97313;-83
2023/12/25 11:19:44;;;;;;;;;;;;;;;7.98;71.74;101439.25;10288980;28;96635;-85
2023/12/25 11:24:48;;;;;;;;;;;;;;;8.04;71.48;101431.34;10288773;28;96689;-85
2023/12/25 11:30:00;;;;;;;;;;;;;;;7.91;71.08;101427.09;10288198;28;96903;-84
2023/12/25 11:35:05;;;;;;;;;;;;;;;7.83;71.29;101416.72;10288312;28;97439;-85
2023/12/25 11:40:09;;;;;;;;;;;;;;;8.02;71.57;101417.41;10288444;28;97483;-84
2023/12/25 11:45:18;;;;;;;;;;;;;;;7.89;71.45;101397.47;10288974;28;96838;-85
2023/12/25 11:50:22;;;;;;;;;;;;;;;8.17;71.30;101380.50;10287804;28;97734;-85
2023/12/25 11:55:27;;;;;;;;;;;;;;;7.95;71.42;101374.66;10285084;28;96714;-84
2023/12/25 12:00:35;;;;;;;;;;;;;;;7.94;70.94;101380.78;10246487;28;97234;-83
2023/12/25 12:05:41;;;;;;;;;;;;;;;7.85;71.15;101372.16;10247589;28;96640;-84
2023/12/25 12:10:45;;;;;;;;;;;;;;;7.96;71.24;101351.97;10246834;28;96804;-84
2023/12/25 12:15:52;;;;;;;;;;;;;;;7.96;70.68;101351.97;10251848;28;97295;-83
2023/12/25 12:20:57;;;;;;;;;;;;;;;7.93;70.85;101362.44;10253531;28;96983;-83
2023/12/25 12:26:01;;;;;;;;;;;;;;;7.88;70.54;101345.91;10253215;28;96789;-85
2023/12/25 12:31:08;;;;;;;;;;;;;;;7.90;70.48;101328.44;10253434;28;97215;-83
2023/12/25 12:36:15;;;;;;;;;;;;;;;7.99;70.39;101325.69;10253807;28;96729;-85
2023/12/25 12:41:19;;;;;;;;;;;;;;;8.00;70.67;101316.94;10252818;28;96687;-84
2023/12/25 12:46:25;;;;;;;;;;;;;;;8.13;70.58;101308.06;10252341;28;96666;-84
2023/12/25 12:51:29;;;;;;;;;;;;;;;8.09;70.34;101303.72;10251625;28;96782;-84
2023/12/25 12:56:33;;;;;;;;;;;;;;;8.09;70.42;101305.47;10252208;28;96765;-84
2023/12/25 13:01:39;;;;;;;;;;;;;;;8.14;70.80;101290.53;10252372;28;96704;-83
2023/12/25 13:06:44;;;;;;;;;;;;;;;8.07;70.47;101291.50;10252167;28;96709;-84
2023/12/25 13:11:48;;;;;;;;;;;;;;;8.05;70.01;101281.06;10252013;28;96762;-83
2023/12/25 13:16:55;;;;;;;;;;;;;;;8.29;69.49;101272.00;10251994;28;97098;-84
2023/12/25 13:21:59;;;;;;;;;;;;;;;9.58;65.78;101261.94;10251849;28;96663;-84
2023/12/25 13:27:06;;;;;;;;;;;;;;;10.26;62.83;101242.09;10251349;28;96650;-84
2023/12/25 13:32:14;;;;;;;;;;;;;;;10.43;61.83;101252.22;10251355;28;97921;-85
2023/12/25 13:37:18;;;;;;;;;;;;;;;9.45;63.78;101239.41;10251030;28;96695;-84
2023/12/25 13:42:23;;;;;;;;;;;;;;;8.85;65.46;101235.25;10249976;28;96953;-83
2023/12/25 13:47:29;;;;;;;;;;;;;;;8.62;66.78;101234.78;10217724;28;97409;-84
2023/12/25 13:52:45;;;;;;;;;;;;;;;8.39;67.89;101231.66;10236916;28;96658;-84
2023/12/25 13:57:49;;;;;;;;;;;;;;;8.45;67.84;101231.53;10250303;28;96699;-84
2023/12/25 14:02:56;;;;;;;;;;;;;;;8.46;67.84;101234.16;10250428;28;96642;-83
2023/12/25 14:08:01;;;;;;;;;;;;;;;8.49;68.38;101226.22;10249877;28;96799;-82
2023/12/25 14:13:07;;;;;;;;;;;;;;;8.39;68.65;101222.03;10249771;28;97311;-83
2023/12/25 14:18:14;;;;;;;;;;;;;;;8.37;68.89;101226.44;10250797;28;97433;-84
2023/12/25 14:23:19;;;;;;;;;;;;;;;8.43;68.65;101220.22;10249741;28;96816;-84
2023/12/25 14:28:29;;;;;;;;;;;;;;;8.42;68.45;101224.59;10356724;22;96959;-83
2023/12/25 14:33:43;;;;;;;;;;;;;;;8.55;68.71;101236.63;10371446;28;96948;-83
2023/12/25 14:39:00;;;;;;;;;;;;;;;8.28;68.74;101223.06;10372343;28;96777;-84
2023/12/25 14:44:05;;;;;;;;;;;;;;;8.29;68.48;101222.19;10372879;28;97054;-84
2023/12/25 14:49:17;;;;;;;;;;;;;;;8.94;66.81;101225.47;10372288;28;96630;-83
2023/12/25 14:54:26;;;;;;;;;;;;;;;9.59;64.09;101221.63;10371668;28;96694;-85
2023/12/25 14:59:37;;;;;;;;;;;;;;;10.11;63.62;101227.50;10371667;28;97940;-85
2023/12/25 15:04:47;;;;;;;;;;;;;;;10.02;62.57;101229.50;10371602;28;96675;-84
2023/12/25 15:10:02;;;;;;;;;;;;;;;10.78;61.46;101220.66;10372857;28;96618;-84
2023/12/25 15:15:10;;;;;;;;;;;;;;;10.61;61.04;101223.69;10371599;28;96934;-84
2023/12/25 15:20:24;;;;;;;;;;;;;;;10.85;60.03;101216.97;10371402;28;96639;-85
2023/12/25 15:25:31;;;;;;;;;;;;;;;10.65;60.46;101224.47;10369660;28;97322;-84
2023/12/25 15:30:52;;;;;;;;;;;;;;;;;;;;;
2023/12/25 15:36:02;;;;;;;;;;;;;;;10.78;60.05;101231.19;10370431;28;96679;-84
2023/12/25 15:41:10;;;;;;;;;;;;;;;10.78;60.33;101241.72;10370813;28;97125;-83
2023/12/25 15:46:17;;;;;;;;;;;;;;;10.46;61.23;101245.13;10369969;28;96785;-85
2023/12/25 15:51:31;;;;;;;;;;;;;;;10.30;61.46;101243.72;10376108;28;97164;-84
2023/12/25 15:56:36;;;;;;;;;;;;;;;10.17;61.73;101252.81;10377314;28;96730;-82
2023/12/25 16:01:41;;;;;;;;;;;;;;;10.18;62.12;101250.16;10378272;28;96605;-85
2023/12/25 16:06:51;;;;;;;;;;;;;;;10.01;61.78;101243.53;10376580;28;97521;-83
2023/12/25 16:11:55;;;;;;;;;;;;;;;9.42;63.76;101243.84;10377395;28;96689;-84
2023/12/25 16:16:59;;;;;;;;;;;;;;;8.85;65.34;101251.00;10375505;28;96716;-83
2023/12/25 16:22:07;;;;;;;;;;;;;;;8.55;66.46;101243.63;10376653;28;97202;-84
2023/12/25 16:27:11;;;;;;;;;;;;;;;8.32;67.33;101249.22;10375554;28;97426;-83
2023/12/25 16:32:17;;;;;;;;;;;;;;;8.19;68.13;101244.16;10376466;28;96712;-84
2023/12/25 16:37:25;;;;;;;;;;;;;;;7.96;68.94;101245.34;10376426;28;97188;-84
2023/12/25 16:42:29;;;;;;;;;;;;;;;7.83;69.72;101246.41;10375858;28;96675;-84
2023/12/25 16:47:36;;;;;;;;;;;;;;;7.78;70.63;101252.59;10375718;28;96664;-84
2023/12/25 16:52:44;;;;;;;;;;;;;;;7.61;71.03;101247.56;10376370;28;96749;-83
2023/12/25 16:57:48;;;;;;;;;;;;;;;7.55;71.12;101251.97;10375236;28;96779;-84
2023/12/25 17:02:52;;;;;;;;;;;;;;;7.50;71.88;101259.03;10374161;28;97255;-83
2023/12/25 17:07:57;;;;;;;;;;;;;;;7.40;72.20;101271.38;10374481;28;96820;-84
2023/12/25 17:13:03;;;;;;;;;;;;;;;7.34;72.31;101267.94;10374524;28;97212;-84
2023/12/25 17:18:08;;;;;;;;;;;;;;;7.25;72.54;101270.66;10374942;28;96970;-84
2023/12/25 17:23:14;;;;;;;;;;;;;;;7.25;73.06;101273.28;10374195;28;97143;-84
2023/12/25 17:28:20;;;;;;;;;;;;;;;7.17;73.60;101280.31;10373809;28;96689;-84
2023/12/25 17:33:31;;;;;;;;;;;;;;;7.11;73.30;101281.28;10374324;28;97291;-84
2023/12/25 17:38:38;;;;;;;;;;;;;;;7.09;73.60;101282.16;10374333;28;96722;-84
2023/12/25 17:43:42;;;;;;;;;;;;;;;7.06;73.43;101280.41;10374861;28;96729;-84
2023/12/25 17:48:47;;;;;;;;;;;;;;;7.07;73.93;101294.38;10373598;28;97603;-84
2023/12/25 17:54:07;;;;;;;;;;;;;;;7.00;73.99;101290.06;10373817;28;96645;-85
2023/12/25 17:59:12;;;;;;;;;;;;;;;6.96;74.68;101299.69;10372088;28;97836;-83
2023/12/25 18:04:17;;;;;;;;;;;;;;;6.96;74.28;101301.47;10373691;28;96557;-85
2023/12/25 18:09:24;;;;;;;;;;;;;;;6.98;74.73;101300.56;10373322;28;96693;-83
2023/12/25 18:14:29;;;;;;;;;;;;;;;6.90;74.56;101310.22;10372895;28;96899;-84
2023/12/25 18:19:34;;;;;;;;;;;;;;;6.89;74.50;101316.31;10356263;28;97023;-83
2023/12/25 18:24:41;;;;;;;;;;;;;;;6.84;74.77;101315.50;10355621;28;97122;-84
2023/12/25 18:29:45;;;;;;;;;;;;;;;6.87;74.92;101310.22;10396706;28;96848;-84
2023/12/25 18:34:50;;;;;;;;;;;;;;;6.82;75.32;101311.97;10414876;28;96814;-83
2023/12/25 18:40:04;;;;;;;;;;;;;;;6.86;75.00;101321.59;10404474;28;96791;-84
2023/12/25 18:45:11;;;;;;;;;;;;;;;6.79;75.19;101319.88;10372367;28;96961;-83
2023/12/25 18:50:16;;;;;;;;;;;;;;;6.74;74.95;101319.91;10371047;28;96776;-85
2023/12/25 18:55:22;;;;;;;;;;;;;;;6.69;75.58;101321.69;10371774;28;96681;-83
2023/12/25 19:00:27;;;;;;;;;;;;;;;6.65;75.64;101322.56;10371890;28;96673;-84
2023/12/25 19:05:31;;;;;;;;;;;;;;;6.61;76.17;101320.00;10330224;28;97469;-82
2023/12/25 19:10:41;;;;;;;;;;;;;;;6.58;76.33;101323.50;10330276;28;96647;-85
2023/12/25 19:15:45;;;;;;;;;;;;;;;6.57;76.14;101326.13;10353894;28;96789;-84
2023/12/25 19:20:50;;;;;;;;;;;;;;;6.51;76.29;101321.78;10371623;28;96676;-84
2023/12/25 19:25:57;;;;;;;;;;;;;;;6.55;76.10;101315.69;10376800;28;96608;-85
2023/12/25 19:31:02;;;;;;;;;;;;;;;6.50;76.62;101320.06;10378342;28;96776;-85
2023/12/25 19:36:06;;;;;;;;;;;;;;;6.50;76.61;101320.06;10378227;28;97279;-84
2023/12/25 19:41:13;;;;;;;;;;;;;;;6.48;76.88;101323.56;10377425;28;96612;-85
2023/12/25 19:46:17;;;;;;;;;;;;;;;6.51;76.55;101328.75;10378216;28;96659;-85
2023/12/25 19:51:22;;;;;;;;;;;;;;;6.52;76.47;101333.13;10378276;28;96988;-85
2023/12/25 19:56:31;;;;;;;;;;;;;;;6.48;76.78;101321.81;10377321;28;96726;-84
2023/12/25 20:01:37;;;;;;;;;;;;;;;6.46;76.70;101326.19;10377250;28;96688;-85
2023/12/25 20:06:42;;;;;;;;;;;;;;;6.46;76.93;101314.84;10376848;28;97109;-84
2023/12/25 20:11:52;;;;;;;;;;;;;;;6.43;76.71;101310.53;10376654;28;96897;-83
2023/12/25 20:16:56;;;;;;;;;;;;;;;6.47;76.91;101316.59;10378039;28;96830;-83
2023/12/25 20:22:00;;;;;;;;;;;;;;;6.42;76.85;101313.16;10376485;28;96747;-85
2023/12/25 20:27:07;;;;;;;;;;;;;;;6.43;76.89;101314.88;10376243;28;97080;-83
2023/12/25 20:32:12;;;;;;;;;;;;;;;6.43;77.43;101321.00;10375470;28;97440;-84
2023/12/25 20:37:16;;;;;;;;;;;;;;;6.40;76.95;101313.13;10375791;28;96730;-84
2023/12/25 20:42:22;;;;;;;;;;;;;;;6.41;77.47;101317.50;10375848;28;96741;-83
2023/12/25 20:47:28;;;;;;;;;;;;;;;6.45;77.72;101313.13;10375779;28;97247;-85
2023/12/25 20:52:32;;;;;;;;;;;;;;;6.37;77.49;101310.56;10375292;28;97432;-85
2023/12/25 20:57:39;;;;;;;;;;;;;;;6.38;77.51;101320.16;10375105;28;96755;-84
2023/12/25 21:02:44;;;;;;;;;;;;;;;6.41;77.98;101312.28;10375494;28;96722;-83
2023/12/25 21:07:48;;;;;;;;;;;;;;;6.35;77.37;101312.31;10369662;28;97035;-84
2023/12/25 21:12:55;;;;;;;;;;;;;;;6.39;77.54;101310.53;10342633;28;97289;-85
2023/12/25 21:18:00;;;;;;;;;;;;;;;6.35;77.90;101303.63;10375020;28;96725;-85
2023/12/25 21:23:07;;;;;;;;;;;;;;;6.39;77.72;101298.34;10396456;28;97248;-85
2023/12/25 21:28:13;;;;;;;;;;;;;;;6.34;77.61;101300.13;10404750;28;97253;-85
2023/12/25 21:33:18;;;;;;;;;;;;;;;6.38;77.63;101293.13;10373957;28;97317;-85
2023/12/25 21:38:22;;;;;;;;;;;;;;;6.38;78.18;101283.56;10374223;28;96874;-85
2023/12/25 21:43:29;;;;;;;;;;;;;;;6.36;78.21;101298.38;10374315;28;97224;-85
2023/12/25 21:48:33;;;;;;;;;;;;;;;6.38;77.85;101293.13;10372829;28;96589;-84
2023/12/25 21:53:37;;;;;;;;;;;;;;;6.36;78.03;101298.38;10373393;28;96800;-85
2023/12/25 21:58:48;;;;;;;;;;;;;;;6.35;77.93;101299.22;10373895;28;96701;-85
2023/12/25 22:03:53;;;;;;;;;;;;;;;6.34;78.34;101299.25;10373032;28;97200;-83
2023/12/25 22:08:57;;;;;;;;;;;;;;;6.37;78.27;101304.44;10373393;28;96866;-84
2023/12/25 22:14:05;;;;;;;;;;;;;;;6.36;78.17;101307.94;10372073;28;96587;-84
2023/12/25 22:19:09;;;;;;;;;;;;;;;6.34;78.58;101320.16;10372724;28;96963;-85
2023/12/25 22:24:16;;;;;;;;;;;;;;;6.30;78.76;101328.91;10382955;28;96949;-85
2023/12/25 22:29:23;;;;;;;;;;;;;;;6.35;78.35;101317.53;10392860;28;97006;-86
2023/12/25 22:34:27;;;;;;;;;;;;;;;6.34;78.35;101312.31;10372608;28;97110;-84
2023/12/25 22:39:31;;;;;;;;;;;;;;;6.38;78.37;101325.38;10372120;28;97377;-85
2023/12/25 22:44:39;;;;;;;;;;;;;;;6.39;78.45;101331.44;10372499;28;97394;-85
2023/12/25 22:49:43;;;;;;;;;;;;;;;6.42;78.61;101334.91;10372767;28;96559;-83
2023/12/25 22:54:47;;;;;;;;;;;;;;;6.43;78.55;101341.03;10370847;28;96866;-85
2023/12/25 22:59:54;;;;;;;;;;;;;;;6.48;78.49;101332.28;10370164;28;97372;-83
2023/12/25 23:04:59;;;;;;;;;;;;;;;6.44;78.67;101345.34;10333845;28;96838;-85
2023/12/25 23:10:07;;;;;;;;;;;;;;;6.48;78.27;101345.34;10333394;28;96720;-85
2023/12/25 23:15:14;;;;;;;;;;;;;;;6.47;78.11;101343.59;10371624;28;97308;-84
2023/12/25 23:20:19;;;;;;;;;;;;;;;6.51;78.46;101355.78;10371755;28;96913;-85
2023/12/25 23:25:26;;;;;;;;;;;;;;;6.48;78.43;101350.59;10401281;28;96742;-85
2023/12/25 23:30:35;;;;;;;;;;;;;;;6.46;78.59;101351.44;10381790;28;96706;-83
2023/12/25 23:35:40;;;;;;;;;;;;;;;6.46;78.54;101354.94;10370611;28;96969;-85
2023/12/25 23:40:46;;;;;;;;;;;;;;;6.48;78.34;101360.16;10371284;28;96619;-85
2023/12/25 23:45:53;;;;;;;;;;;;;;;6.56;78.39;101360.97;10370311;28;96687;-85
2023/12/25 23:50:58;;;;;;;;;;;;;;;6.48;78.55;101345.34;10370285;28;96791;-84
2023/12/25 23:56:02;;;;;;;;;;;;;;;6.47;78.96;101337.53;10368843;28;96652;-84
